sensor_id;sensor_type;location;lat;lon;timestamp;pressure;altitude;pressure_sealevel;temperature;humidity
57232;BME280;43488;46.934;8.276;2023-03-14T00:00:19;95437.59;;;10.51;94.72
57232;BME280;43488;46.934;8.276;2023-03-14T00:02:54;95445.41;;;10.46;95.70
57232;BME280;43488;46.934;8.276;2023-03-14T00:05:22;95448.72;;;10.41;95.31
57232;BME280;43488;46.934;8.276;2023-03-14T00:07:50;95447.28;;;10.34;88.92
57232;BME280;43488;46.934;8.276;2023-03-14T00:10:17;95453.31;;;10.34;95.35
57232;BME280;43488;46.934;8.276;2023-03-14T00:12:45;95457.56;;;10.35;99.26
57232;BME280;43488;46.934;8.276;2023-03-14T00:15:13;95444.03;;;10.32;100.00
57232;BME280;43488;46.934;8.276;2023-03-14T00:17:43;95431.94;;;10.31;100.00
57232;BME280;43488;46.934;8.276;2023-03-14T00:20:13;95431.25;;;10.23;100.00
57232;BME280;43488;46.934;8.276;2023-03-14T00:22:41;95442.56;;;10.24;100.00
57232;BME280;43488;46.934;8.276;2023-03-14T00:25:10;95438.94;;;10.25;100.00
57232;BME280;43488;46.934;8.276;2023-03-14T00:27:38;95445.44;;;10.22;98.38
57232;BME280;43488;46.934;8.276;2023-03-14T00:30:07;95434.09;;;10.10;96.75
57232;BME280;43488;46.934;8.276;2023-03-14T00:32:37;95424.63;;;10.09;96.51
57232;BME280;43488;46.934;8.276;2023-03-14T00:35:05;95423.25;;;10.07;96.87
57232;BME280;43488;46.934;8.276;2023-03-14T00:37:32;95417.75;;;10.08;99.33
57232;BME280;43488;46.934;8.276;2023-03-14T00:39:59;95419.69;;;10.01;98.50
57232;BME280;43488;46.934;8.276;2023-03-14T00:42:27;95415.03;;;9.91;96.92
57232;BME280;43488;46.934;8.276;2023-03-14T00:44:54;95409.53;;;9.93;96.81
57232;BME280;43488;46.934;8.276;2023-03-14T00:47:21;95409.28;;;9.94;97.81
57232;BME280;43488;46.934;8.276;2023-03-14T00:49:49;95403.94;;;9.89;98.45
57232;BME280;43488;46.934;8.276;2023-03-14T00:52:16;95405.66;;;9.84;98.14
57232;BME280;43488;46.934;8.276;2023-03-14T00:54:43;95389.88;;;9.84;98.82
57232;BME280;43488;46.934;8.276;2023-03-14T00:57:10;95387.47;;;9.82;99.75
57232;BME280;43488;46.934;8.276;2023-03-14T00:59:38;95389.66;;;9.74;97.36
57232;BME280;43488;46.934;8.276;2023-03-14T01:02:06;95387.94;;;9.67;98.02
57232;BME280;43488;46.934;8.276;2023-03-14T01:04:33;95375.25;;;9.64;98.11
57232;BME280;43488;46.934;8.276;2023-03-14T01:07:02;95368.75;;;9.67;98.62
57232;BME280;43488;46.934;8.276;2023-03-14T01:09:30;95355.38;;;9.68;98.71
57232;BME280;43488;46.934;8.276;2023-03-14T01:11:58;95355.84;;;9.65;100.00
57232;BME280;43488;46.934;8.276;2023-03-14T01:14:25;95343.25;;;9.67;100.00
57232;BME280;43488;46.934;8.276;2023-03-14T01:16:53;95338.13;;;9.61;98.93
57232;BME280;43488;46.934;8.276;2023-03-14T01:19:20;95337.88;;;9.51;95.66
57232;BME280;43488;46.934;8.276;2023-03-14T01:21:48;95333.78;;;9.43;95.85
57232;BME280;43488;46.934;8.276;2023-03-14T01:24:15;95320.53;;;9.38;96.57
57232;BME280;43488;46.934;8.276;2023-03-14T01:26:42;95287.75;;;9.40;96.79
57232;BME280;43488;46.934;8.276;2023-03-14T01:29:10;95301.69;;;9.41;97.61
57232;BME280;43488;46.934;8.276;2023-03-14T01:31:38;95284.22;;;9.23;98.29
57232;BME280;43488;46.934;8.276;2023-03-14T01:34:05;95258.09;;;9.17;98.29
57232;BME280;43488;46.934;8.276;2023-03-14T01:36:33;95264.81;;;9.12;98.58
57232;BME280;43488;46.934;8.276;2023-03-14T01:39:01;95275.31;;;9.01;98.92
57232;BME280;43488;46.934;8.276;2023-03-14T01:41:28;95258.63;;;8.95;98.38
57232;BME280;43488;46.934;8.276;2023-03-14T01:43:55;95255.91;;;9.02;98.88
57232;BME280;43488;46.934;8.276;2023-03-14T01:46:41;95243.69;;;9.07;98.78
57232;BME280;43488;46.934;8.276;2023-03-14T01:54:40;95246.19;;;9.02;100.00
57232;BME280;43488;46.934;8.276;2023-03-14T01:57:22;95236.16;;;8.99;100.00
57232;BME280;43488;46.934;8.276;2023-03-14T02:00:17;95233.41;;;8.94;100.00
57232;BME280;43488;46.934;8.276;2023-03-14T02:03:00;95236.84;;;8.95;100.00
57232;BME280;43488;46.934;8.276;2023-03-14T02:05:33;95245.72;;;8.94;100.00
57232;BME280;43488;46.934;8.276;2023-03-14T02:08:05;95242.78;;;8.90;98.92
57232;BME280;43488;46.934;8.276;2023-03-14T02:10:41;95228.38;;;8.93;98.59
57232;BME280;43488;46.934;8.276;2023-03-14T02:13:11;95222.13;;;8.94;97.96
57232;BME280;43488;46.934;8.276;2023-03-14T02:15:40;95229.31;;;8.98;96.87
57232;BME280;43488;46.934;8.276;2023-03-14T02:18:08;95209.44;;;9.02;95.41
57232;BME280;43488;46.934;8.276;2023-03-14T02:21:09;95202.94;;;9.05;94.65
57232;BME280;43488;46.934;8.276;2023-03-14T02:24:22;95200.91;;;9.07;97.35
57232;BME280;43488;46.934;8.276;2023-03-14T02:30:14;95187.88;;;9.00;100.00
57232;BME280;43488;46.934;8.276;2023-03-14T02:32:48;95177.38;;;9.00;100.00
57232;BME280;43488;46.934;8.276;2023-03-14T02:35:23;95178.41;;;8.99;100.00
57232;BME280;43488;46.934;8.276;2023-03-14T02:38:11;95178.50;;;9.04;100.00
57232;BME280;43488;46.934;8.276;2023-03-14T02:40:42;95183.88;;;9.09;100.00
57232;BME280;43488;46.934;8.276;2023-03-14T02:43:09;95191.53;;;9.11;100.00
57232;BME280;43488;46.934;8.276;2023-03-14T02:45:48;95199.06;;;9.07;100.00
57232;BME280;43488;46.934;8.276;2023-03-14T02:50:48;95188.69;;;9.01;100.00
57232;BME280;43488;46.934;8.276;2023-03-14T03:00:09;95160.50;;;8.96;100.00
57232;BME280;43488;46.934;8.276;2023-03-14T03:02:37;95157.19;;;8.89;100.00
57232;BME280;43488;46.934;8.276;2023-03-14T03:05:04;95149.31;;;8.89;100.00
57232;BME280;43488;46.934;8.276;2023-03-14T03:07:32;95141.66;;;8.76;100.00
57232;BME280;43488;46.934;8.276;2023-03-14T03:09:59;95136.63;;;8.86;100.00
57232;BME280;43488;46.934;8.276;2023-03-14T03:12:26;95134.25;;;8.84;100.00
57232;BME280;43488;46.934;8.276;2023-03-14T03:14:54;95124.13;;;8.88;100.00
57232;BME280;43488;46.934;8.276;2023-03-14T03:17:21;95126.50;;;8.90;100.00
57232;BME280;43488;46.934;8.276;2023-03-14T03:19:48;95125.81;;;8.82;100.00
57232;BME280;43488;46.934;8.276;2023-03-14T03:22:16;95119.66;;;8.77;100.00
57232;BME280;43488;46.934;8.276;2023-03-14T03:24:43;95123.78;;;8.73;100.00
57232;BME280;43488;46.934;8.276;2023-03-14T03:27:11;95133.13;;;8.80;100.00
57232;BME280;43488;46.934;8.276;2023-03-14T03:29:38;95125.03;;;8.82;100.00
57232;BME280;43488;46.934;8.276;2023-03-14T03:32:06;95114.31;;;8.72;100.00
57232;BME280;43488;46.934;8.276;2023-03-14T03:34:33;95125.72;;;8.66;100.00
57232;BME280;43488;46.934;8.276;2023-03-14T03:37:00;95119.44;;;8.55;100.00
57232;BME280;43488;46.934;8.276;2023-03-14T03:39:27;95113.25;;;8.49;100.00
57232;BME280;43488;46.934;8.276;2023-03-14T03:41:55;95108.16;;;8.54;100.00
57232;BME280;43488;46.934;8.276;2023-03-14T03:44:22;95105.84;;;8.58;100.00
57232;BME280;43488;46.934;8.276;2023-03-14T03:46:49;95092.41;;;8.54;100.00
57232;BME280;43488;46.934;8.276;2023-03-14T03:49:16;95092.41;;;8.54;100.00
57232;BME280;43488;46.934;8.276;2023-03-14T03:51:43;95091.03;;;8.52;100.00
57232;BME280;43488;46.934;8.276;2023-03-14T03:54:11;95101.31;;;8.53;100.00
57232;BME280;43488;46.934;8.276;2023-03-14T03:56:39;95094.81;;;8.44;100.00
57232;BME280;43488;46.934;8.276;2023-03-14T03:59:06;95093.66;;;8.40;100.00
57232;BME280;43488;46.934;8.276;2023-03-14T04:01:33;95086.56;;;8.41;100.00
57232;BME280;43488;46.934;8.276;2023-03-14T04:04:00;95086.31;;;8.31;100.00
57232;BME280;43488;46.934;8.276;2023-03-14T04:06:28;95090.75;;;8.30;100.00
57232;BME280;43488;46.934;8.276;2023-03-14T04:08:55;95084.97;;;8.28;100.00
57232;BME280;43488;46.934;8.276;2023-03-14T04:11:23;95074.59;;;8.33;100.00
57232;BME280;43488;46.934;8.276;2023-03-14T04:13:51;95070.16;;;8.34;100.00
57232;BME280;43488;46.934;8.276;2023-03-14T04:16:24;95061.63;;;8.38;100.00
57232;BME280;43488;46.934;8.276;2023-03-14T04:18:52;95052.16;;;8.37;100.00
57232;BME280;43488;46.934;8.276;2023-03-14T04:21:20;95044.59;;;8.29;100.00
57232;BME280;43488;46.934;8.276;2023-03-14T04:23:47;95038.00;;;8.26;100.00
57232;BME280;43488;46.934;8.276;2023-03-14T04:26:15;95048.38;;;8.33;100.00
57232;BME280;43488;46.934;8.276;2023-03-14T04:28:43;95050.19;;;8.33;100.00
57232;BME280;43488;46.934;8.276;2023-03-14T04:31:21;95035.84;;;8.23;100.00
57232;BME280;43488;46.934;8.276;2023-03-14T04:33:48;95043.47;;;8.25;100.00
57232;BME280;43488;46.934;8.276;2023-03-14T04:36:16;95045.53;;;8.23;100.00
57232;BME280;43488;46.934;8.276;2023-03-14T04:38:43;95031.72;;;8.16;100.00
57232;BME280;43488;46.934;8.276;2023-03-14T04:41:11;95036.63;;;8.01;100.00
57232;BME280;43488;46.934;8.276;2023-03-14T04:43:39;95034.69;;;8.08;100.00
57232;BME280;43488;46.934;8.276;2023-03-14T04:46:06;95033.09;;;8.07;100.00
57232;BME280;43488;46.934;8.276;2023-03-14T04:48:34;95029.91;;;8.05;100.00
57232;BME280;43488;46.934;8.276;2023-03-14T04:51:01;95012.91;;;8.07;100.00
57232;BME280;43488;46.934;8.276;2023-03-14T04:53:29;95005.88;;;7.96;100.00
57232;BME280;43488;46.934;8.276;2023-03-14T04:55:56;95000.94;;;7.88;100.00
57232;BME280;43488;46.934;8.276;2023-03-14T04:58:24;94997.41;;;7.82;100.00
57232;BME280;43488;46.934;8.276;2023-03-14T05:00:52;94995.94;;;7.86;100.00
57232;BME280;43488;46.934;8.276;2023-03-14T05:03:19;94997.53;;;7.87;100.00
57232;BME280;43488;46.934;8.276;2023-03-14T05:05:47;95001.28;;;7.80;100.00
57232;BME280;43488;46.934;8.276;2023-03-14T05:08:14;94988.84;;;7.75;100.00
57232;BME280;43488;46.934;8.276;2023-03-14T05:10:41;94982.16;;;7.79;100.00
57232;BME280;43488;46.934;8.276;2023-03-14T05:13:09;94985.78;;;7.78;100.00
57232;BME280;43488;46.934;8.276;2023-03-14T05:15:36;94993.41;;;7.80;100.00
57232;BME280;43488;46.934;8.276;2023-03-14T05:18:03;94990.56;;;7.69;100.00
57232;BME280;43488;46.934;8.276;2023-03-14T05:20:31;94990.56;;;7.69;100.00
57232;BME280;43488;46.934;8.276;2023-03-14T05:22:58;94981.44;;;7.72;100.00
57232;BME280;43488;46.934;8.276;2023-03-14T05:25:26;94974.25;;;7.67;100.00
57232;BME280;43488;46.934;8.276;2023-03-14T05:27:54;94964.34;;;7.58;100.00
57232;BME280;43488;46.934;8.276;2023-03-14T05:30:22;94957.50;;;7.57;100.00
57232;BME280;43488;46.934;8.276;2023-03-14T05:32:49;94947.72;;;7.52;100.00
57232;BME280;43488;46.934;8.276;2023-03-14T05:35:17;94945.88;;;7.41;100.00
57232;BME280;43488;46.934;8.276;2023-03-14T05:37:44;94947.81;;;7.46;100.00
57232;BME280;43488;46.934;8.276;2023-03-14T05:40:12;94941.06;;;7.26;100.00
57232;BME280;43488;46.934;8.276;2023-03-14T05:42:40;94934.81;;;7.27;100.00
57232;BME280;43488;46.934;8.276;2023-03-14T05:45:08;94920.47;;;7.30;100.00
57232;BME280;43488;46.934;8.276;2023-03-14T05:47:35;94935.84;;;7.38;100.00
57232;BME280;43488;46.934;8.276;2023-03-14T05:50:02;94921.38;;;7.24;100.00
57232;BME280;43488;46.934;8.276;2023-03-14T05:52:31;94912.59;;;7.18;100.00
57232;BME280;43488;46.934;8.276;2023-03-14T05:54:58;94917.69;;;7.13;100.00
57232;BME280;43488;46.934;8.276;2023-03-14T05:57:25;94913.06;;;7.15;100.00
57232;BME280;43488;46.934;8.276;2023-03-14T05:59:53;94910.56;;;7.20;100.00
57232;BME280;43488;46.934;8.276;2023-03-14T06:02:20;94907.69;;;7.22;100.00
57232;BME280;43488;46.934;8.276;2023-03-14T06:04:47;94907.38;;;7.18;100.00
57232;BME280;43488;46.934;8.276;2023-03-14T06:07:14;94908.50;;;7.22;100.00
57232;BME280;43488;46.934;8.276;2023-03-14T06:09:42;94903.16;;;7.17;100.00
57232;BME280;43488;46.934;8.276;2023-03-14T06:12:11;94891.88;;;7.17;100.00
57232;BME280;43488;46.934;8.276;2023-03-14T06:14:39;94895.16;;;7.12;100.00
57232;BME280;43488;46.934;8.276;2023-03-14T06:17:07;94891.97;;;7.10;100.00
57232;BME280;43488;46.934;8.276;2023-03-14T06:19:35;94891.06;;;7.04;100.00
57232;BME280;43488;46.934;8.276;2023-03-14T06:22:02;94896.41;;;6.98;100.00
57232;BME280;43488;46.934;8.276;2023-03-14T06:24:29;94902.97;;;6.89;100.00
57232;BME280;43488;46.934;8.276;2023-03-14T06:26:58;94899.44;;;6.95;100.00
57232;BME280;43488;46.934;8.276;2023-03-14T06:29:25;94904.69;;;6.95;100.00
57232;BME280;43488;46.934;8.276;2023-03-14T06:31:52;94907.09;;;6.96;100.00
57232;BME280;43488;46.934;8.276;2023-03-14T06:34:19;94912.00;;;7.04;100.00
57232;BME280;43488;46.934;8.276;2023-03-14T06:36:47;94917.25;;;7.04;100.00
57232;BME280;43488;46.934;8.276;2023-03-14T06:39:14;94911.41;;;7.02;100.00
57232;BME280;43488;46.934;8.276;2023-03-14T06:41:42;94897.38;;;6.85;100.00
57232;BME280;43488;46.934;8.276;2023-03-14T06:44:10;94905.22;;;6.85;100.00
57232;BME280;43488;46.934;8.276;2023-03-14T06:46:37;94910.03;;;6.88;100.00
57232;BME280;43488;46.934;8.276;2023-03-14T06:49:04;94911.38;;;6.91;100.00
57232;BME280;43488;46.934;8.276;2023-03-14T06:51:32;94927.31;;;6.89;100.00
57232;BME280;43488;46.934;8.276;2023-03-14T06:53:59;94926.16;;;6.85;100.00
57232;BME280;43488;46.934;8.276;2023-03-14T06:56:27;94920.75;;;6.98;100.00
57232;BME280;43488;46.934;8.276;2023-03-14T06:58:55;94925.78;;;7.11;100.00
57232;BME280;43488;46.934;8.276;2023-03-14T07:01:28;94927.50;;;7.18;100.00
57232;BME280;43488;46.934;8.276;2023-03-14T07:03:56;94926.25;;;7.20;100.00
57232;BME280;43488;46.934;8.276;2023-03-14T07:06:24;94934.56;;;7.29;100.00
57232;BME280;43488;46.934;8.276;2023-03-14T07:08:52;94933.00;;;7.39;100.00
57232;BME280;43488;46.934;8.276;2023-03-14T07:11:22;94931.97;;;7.40;100.00
57232;BME280;43488;46.934;8.276;2023-03-14T07:13:49;94933.13;;;7.33;100.00
57232;BME280;43488;46.934;8.276;2023-03-14T07:16:17;94932.56;;;7.43;100.00
57232;BME280;43488;46.934;8.276;2023-03-14T07:18:44;94935.66;;;7.51;100.00
57232;BME280;43488;46.934;8.276;2023-03-14T07:21:12;94941.22;;;7.55;100.00
57232;BME280;43488;46.934;8.276;2023-03-14T07:23:40;94950.13;;;7.65;100.00
57232;BME280;43488;46.934;8.276;2023-03-14T07:26:08;94950.47;;;7.69;100.00
57232;BME280;43488;46.934;8.276;2023-03-14T07:28:35;94953.09;;;7.69;100.00
57232;BME280;43488;46.934;8.276;2023-03-14T07:31:03;94959.94;;;7.70;100.00
57232;BME280;43488;46.934;8.276;2023-03-14T07:33:31;94961.06;;;7.86;100.00
57232;BME280;43488;46.934;8.276;2023-03-14T07:35:59;94954.09;;;8.03;100.00
57232;BME280;43488;46.934;8.276;2023-03-14T07:38:27;94966.41;;;8.03;100.00
57232;BME280;43488;46.934;8.276;2023-03-14T07:41:02;94966.19;;;8.16;100.00
57232;BME280;43488;46.934;8.276;2023-03-14T07:43:32;94962.31;;;8.18;100.00
57232;BME280;43488;46.934;8.276;2023-03-14T07:46:00;94962.19;;;8.25;100.00
57232;BME280;43488;46.934;8.276;2023-03-14T07:48:27;94970.75;;;8.20;100.00
57232;BME280;43488;46.934;8.276;2023-03-14T07:50:55;94961.19;;;8.38;100.00
57232;BME280;43488;46.934;8.276;2023-03-14T07:53:24;94971.88;;;8.48;100.00
57232;BME280;43488;46.934;8.276;2023-03-14T07:55:53;94974.84;;;8.51;100.00
57232;BME280;43488;46.934;8.276;2023-03-14T07:58:21;94972.88;;;8.59;98.69
57232;BME280;43488;46.934;8.276;2023-03-14T08:00:52;94974.59;;;8.65;98.00
57232;BME280;43488;46.934;8.276;2023-03-14T08:03:20;94974.34;;;8.78;98.52
57232;BME280;43488;46.934;8.276;2023-03-14T08:05:49;94969.47;;;8.87;98.27
57232;BME280;43488;46.934;8.276;2023-03-14T08:08:17;94972.75;;;9.05;99.60
57232;BME280;43488;46.934;8.276;2023-03-14T08:10:45;94969.81;;;9.19;98.05
57232;BME280;43488;46.934;8.276;2023-03-14T08:13:13;94963.66;;;9.25;98.38
57232;BME280;43488;46.934;8.276;2023-03-14T08:15:40;94970.25;;;9.27;98.94
57232;BME280;43488;46.934;8.276;2023-03-14T08:18:08;94962.28;;;9.39;99.11
57232;BME280;43488;46.934;8.276;2023-03-14T08:20:36;94970.09;;;9.51;97.06
57232;BME280;43488;46.934;8.276;2023-03-14T08:23:05;94956.91;;;9.62;97.01
57232;BME280;43488;46.934;8.276;2023-03-14T08:25:32;94956.59;;;9.76;97.14
57232;BME280;43488;46.934;8.276;2023-03-14T08:27:59;94968.22;;;9.80;96.78
57232;BME280;43488;46.934;8.276;2023-03-14T08:30:26;94973.69;;;9.78;94.81
57232;BME280;43488;46.934;8.276;2023-03-14T08:32:54;94975.72;;;9.71;96.40
57232;BME280;43488;46.934;8.276;2023-03-14T08:35:22;94973.78;;;9.66;96.88
57232;BME280;43488;46.934;8.276;2023-03-14T08:37:50;94978.59;;;9.69;96.58
57232;BME280;43488;46.934;8.276;2023-03-14T08:40:19;94997.84;;;9.75;97.13
57232;BME280;43488;46.934;8.276;2023-03-14T08:42:46;94997.56;;;9.60;98.88
57232;BME280;43488;46.934;8.276;2023-03-14T08:45:16;95008.50;;;9.68;100.00
57232;BME280;43488;46.934;8.276;2023-03-14T08:47:44;95017.00;;;9.59;100.00
57232;BME280;43488;46.934;8.276;2023-03-14T08:50:12;95027.84;;;9.62;100.00
57232;BME280;43488;46.934;8.276;2023-03-14T08:52:40;95027.13;;;9.67;99.46
57232;BME280;43488;46.934;8.276;2023-03-14T08:55:09;95016.16;;;9.70;100.00
57232;BME280;43488;46.934;8.276;2023-03-14T08:57:37;95025.25;;;9.79;100.00
57232;BME280;43488;46.934;8.276;2023-03-14T09:00:05;95021.09;;;9.83;99.05
57232;BME280;43488;46.934;8.276;2023-03-14T09:02:39;95022.94;;;9.83;98.90
57232;BME280;43488;46.934;8.276;2023-03-14T09:05:07;95026.22;;;9.90;97.72
57232;BME280;43488;46.934;8.276;2023-03-14T09:07:35;95019.56;;;9.87;98.60
57232;BME280;43488;46.934;8.276;2023-03-14T09:10:02;95028.97;;;9.83;96.01
57232;BME280;43488;46.934;8.276;2023-03-14T09:12:30;95036.06;;;9.66;92.77
57232;BME280;43488;46.934;8.276;2023-03-14T09:14:58;95043.88;;;9.78;92.11
57232;BME280;43488;46.934;8.276;2023-03-14T09:17:25;95046.59;;;9.83;92.56
57232;BME280;43488;46.934;8.276;2023-03-14T09:19:52;95051.34;;;9.86;92.03
57232;BME280;43488;46.934;8.276;2023-03-14T09:22:20;95057.41;;;9.86;91.56
57232;BME280;43488;46.934;8.276;2023-03-14T09:24:48;95056.63;;;9.86;94.07
57232;BME280;43488;46.934;8.276;2023-03-14T09:27:16;95059.19;;;9.81;96.11
57232;BME280;43488;46.934;8.276;2023-03-14T09:29:43;95050.91;;;9.89;95.35
57232;BME280;43488;46.934;8.276;2023-03-14T09:32:11;95052.25;;;9.91;95.81
57232;BME280;43488;46.934;8.276;2023-03-14T09:34:38;95061.97;;;9.91;95.08
57232;BME280;43488;46.934;8.276;2023-03-14T09:37:06;95057.44;;;10.03;94.05
57232;BME280;43488;46.934;8.276;2023-03-14T09:39:33;95051.72;;;10.06;94.50
57232;BME280;43488;46.934;8.276;2023-03-14T09:42:04;95047.84;;;10.14;93.35
57232;BME280;43488;46.934;8.276;2023-03-14T09:44:37;95045.03;;;10.15;96.73
57232;BME280;43488;46.934;8.276;2023-03-14T09:47:11;95049.41;;;10.27;96.42
57232;BME280;43488;46.934;8.276;2023-03-14T09:49:40;95053.16;;;10.31;95.00
57232;BME280;43488;46.934;8.276;2023-03-14T09:54:49;95049.47;;;10.32;94.00
57232;BME280;43488;46.934;8.276;2023-03-14T09:57:24;95072.19;;;10.38;93.18
57232;BME280;43488;46.934;8.276;2023-03-14T10:00:03;95069.81;;;10.36;93.35
57232;BME280;43488;46.934;8.276;2023-03-14T10:02:43;95070.06;;;10.35;94.79
57232;BME280;43488;46.934;8.276;2023-03-14T10:05:20;95074.84;;;10.38;94.78
57232;BME280;43488;46.934;8.276;2023-03-14T10:07:48;95077.78;;;10.41;95.80
57232;BME280;43488;46.934;8.276;2023-03-14T10:10:18;95080.25;;;10.48;96.53
57232;BME280;43488;46.934;8.276;2023-03-14T10:12:55;95082.97;;;10.53;96.44
57232;BME280;43488;46.934;8.276;2023-03-14T10:15:31;95084.06;;;10.57;96.39
57232;BME280;43488;46.934;8.276;2023-03-14T10:18:02;95089.16;;;10.64;96.41
57232;BME280;43488;46.934;8.276;2023-03-14T10:20:39;95093.53;;;10.58;96.09
57232;BME280;43488;46.934;8.276;2023-03-14T10:25:45;95105.44;;;10.44;93.52
57232;BME280;43488;46.934;8.276;2023-03-14T10:28:30;95105.75;;;10.47;92.69
57232;BME280;43488;46.934;8.276;2023-03-14T10:30:59;95107.03;;;10.45;90.21
57232;BME280;43488;46.934;8.276;2023-03-14T10:33:32;95116.03;;;10.49;87.13
57232;BME280;43488;46.934;8.276;2023-03-14T10:36:23;95118.66;;;10.49;85.23
57232;BME280;43488;46.934;8.276;2023-03-14T10:39:28;95125.84;;;10.53;85.81
57232;BME280;43488;46.934;8.276;2023-03-14T10:42:12;95134.69;;;10.47;84.21
57232;BME280;43488;46.934;8.276;2023-03-14T10:44:42;95150.09;;;10.39;80.71
57232;BME280;43488;46.934;8.276;2023-03-14T10:47:19;95154.53;;;10.38;81.85
57232;BME280;43488;46.934;8.276;2023-03-14T10:49:49;95176.22;;;10.29;83.13
57232;BME280;43488;46.934;8.276;2023-03-14T10:52:25;95176.03;;;10.18;83.83
57232;BME280;43488;46.934;8.276;2023-03-14T10:55:11;95183.00;;;10.13;85.33
57232;BME280;43488;46.934;8.276;2023-03-14T10:57:41;95198.47;;;10.09;85.96
57232;BME280;43488;46.934;8.276;2023-03-14T11:00:21;95212.09;;;10.06;87.84
57232;BME280;43488;46.934;8.276;2023-03-14T11:03:19;95224.16;;;9.90;87.45
57232;BME280;43488;46.934;8.276;2023-03-14T11:06:21;95222.22;;;9.86;87.75
57232;BME280;43488;46.934;8.276;2023-03-14T11:09:02;95235.28;;;9.69;88.34
57232;BME280;43488;46.934;8.276;2023-03-14T11:11:34;95233.25;;;9.71;90.86
57232;BME280;43488;46.934;8.276;2023-03-14T11:17:34;95253.47;;;9.59;92.73
57232;BME280;43488;46.934;8.276;2023-03-14T11:24:14;95258.53;;;9.37;91.25
57232;BME280;43488;46.934;8.276;2023-03-14T11:26:42;95258.84;;;9.40;90.49
57232;BME280;43488;46.934;8.276;2023-03-14T11:29:39;95260.25;;;9.43;89.64
57232;BME280;43488;46.934;8.276;2023-03-14T11:32:14;95263.75;;;9.49;90.31
57232;BME280;43488;46.934;8.276;2023-03-14T11:34:51;95278.72;;;9.48;93.88
57232;BME280;43488;46.934;8.276;2023-03-14T11:37:36;95279.19;;;9.45;97.52
57232;BME280;43488;46.934;8.276;2023-03-14T11:40:19;95286.50;;;9.43;97.32
57232;BME280;43488;46.934;8.276;2023-03-14T11:43:00;95288.09;;;9.44;99.45
57232;BME280;43488;46.934;8.276;2023-03-14T11:45:41;95289.94;;;9.44;99.61
57232;BME280;43488;46.934;8.276;2023-03-14T11:51:12;95292.91;;;9.47;98.78
57232;BME280;43488;46.934;8.276;2023-03-14T11:57:10;95341.09;;;9.41;98.22
57232;BME280;43488;46.934;8.276;2023-03-14T12:05:54;95354.81;;;9.43;100.00
57232;BME280;43488;46.934;8.276;2023-03-14T12:08:32;95357.88;;;9.40;98.39
57232;BME280;43488;46.934;8.276;2023-03-14T12:11:39;95354.00;;;9.43;98.18
57232;BME280;43488;46.934;8.276;2023-03-14T12:14:30;95352.19;;;9.55;98.37
57232;BME280;43488;46.934;8.276;2023-03-14T12:20:19;95370.91;;;9.58;96.09
57232;BME280;43488;46.934;8.276;2023-03-14T12:22:55;95369.19;;;9.64;94.81
57232;BME280;43488;46.934;8.276;2023-03-14T12:25:27;95389.75;;;9.67;95.25
57232;BME280;43488;46.934;8.276;2023-03-14T12:30:41;95428.94;;;9.68;96.27
57232;BME280;43488;46.934;8.276;2023-03-14T12:36:04;95460.28;;;9.70;97.20
57232;BME280;43488;46.934;8.276;2023-03-14T12:49:52;95504.69;;;9.60;74.94
57232;BME280;43488;46.934;8.276;2023-03-14T12:53:07;95526.06;;;9.63;70.80
57232;BME280;43488;46.934;8.276;2023-03-14T13:01:20;95525.59;;;9.66;70.90
57232;BME280;43488;46.934;8.276;2023-03-14T13:03:55;95534.84;;;9.57;68.87
57232;BME280;43488;46.934;8.276;2023-03-14T13:06:58;95533.94;;;9.63;64.93
57232;BME280;43488;46.934;8.276;2023-03-14T13:12:09;95542.09;;;9.74;62.90
57232;BME280;43488;46.934;8.276;2023-03-14T13:14:46;95552.13;;;9.77;63.47
57232;BME280;43488;46.934;8.276;2023-03-14T13:17:22;95553.19;;;9.87;62.99
57232;BME280;43488;46.934;8.276;2023-03-14T13:20:11;95534.25;;;9.97;60.02
57232;BME280;43488;46.934;8.276;2023-03-14T13:22:47;95546.03;;;10.06;60.57
57232;BME280;43488;46.934;8.276;2023-03-14T13:25:15;95570.03;;;9.98;64.30
57232;BME280;43488;46.934;8.276;2023-03-14T13:27:43;95569.31;;;9.91;62.11
57232;BME280;43488;46.934;8.276;2023-03-14T13:30:41;95570.25;;;9.96;63.83
57232;BME280;43488;46.934;8.276;2023-03-14T13:33:19;95578.03;;;10.03;62.96
57232;BME280;43488;46.934;8.276;2023-03-14T13:38:31;95587.66;;;10.09;62.29
57232;BME280;43488;46.934;8.276;2023-03-14T13:41:03;95599.81;;;10.22;64.15
57232;BME280;43488;46.934;8.276;2023-03-14T13:43:39;95599.16;;;10.27;64.99
57232;BME280;43488;46.934;8.276;2023-03-14T13:46:22;95600.81;;;10.21;62.95
57232;BME280;43488;46.934;8.276;2023-03-14T13:48:58;95612.97;;;10.22;61.11
57232;BME280;43488;46.934;8.276;2023-03-14T13:51:28;95623.25;;;10.23;64.18
57232;BME280;43488;46.934;8.276;2023-03-14T13:54:00;95642.47;;;10.24;58.94
57232;BME280;43488;46.934;8.276;2023-03-14T13:56:31;95633.19;;;10.21;58.66
57232;BME280;43488;46.934;8.276;2023-03-14T13:58:59;95642.16;;;10.32;57.03
57232;BME280;43488;46.934;8.276;2023-03-14T14:01:35;95659.47;;;10.21;53.73
57232;BME280;43488;46.934;8.276;2023-03-14T14:04:14;95656.28;;;10.19;52.96
57232;BME280;43488;46.934;8.276;2023-03-14T14:06:54;95659.34;;;10.35;52.86
57232;BME280;43488;46.934;8.276;2023-03-14T14:09:37;95676.63;;;10.12;50.88
57232;BME280;43488;46.934;8.276;2023-03-14T14:12:13;95663.47;;;10.12;50.17
57232;BME280;43488;46.934;8.276;2023-03-14T14:17:34;95673.75;;;10.14;52.45
57232;BME280;43488;46.934;8.276;2023-03-14T14:20:07;95659.00;;;10.13;52.25
57232;BME280;43488;46.934;8.276;2023-03-14T14:22:35;95658.13;;;10.19;50.49
57232;BME280;43488;46.934;8.276;2023-03-14T14:25:05;95660.47;;;10.39;50.16
57232;BME280;43488;46.934;8.276;2023-03-14T14:27:43;95660.94;;;10.59;48.44
57232;BME280;43488;46.934;8.276;2023-03-14T14:32:50;95656.09;;;11.38;47.02
57232;BME280;43488;46.934;8.276;2023-03-14T14:35:30;95672.16;;;11.36;46.03
57232;BME280;43488;46.934;8.276;2023-03-14T14:37:58;95658.81;;;11.55;46.03
57232;BME280;43488;46.934;8.276;2023-03-14T14:40:30;95664.69;;;11.45;44.71
57232;BME280;43488;46.934;8.276;2023-03-14T14:43:05;95653.81;;;11.70;44.10